Time;durP1;ratioP1;P1;durP2;ratioP2;P2;SDS_P1;SDS_P2;PMS_P1;PMS_P2;Temp;Humidity;BMP_temperature;BMP_pressure;BME280_temperature;BME280_humidity;BME280_pressure;Samples;Min_cycle;Max_cycle;Signal;HPM_P1;HPM_P2
2023/07/11 00:00:06;;;;;;;;;;;;;;;;;;10033596;28;19958;-67
2023/07/11 00:05:02;;;;;;;;;;;;;;;;;;10024545;28;19923;-68
2023/07/11 00:09:58;;;;;;;;;;;;;;;;;;10037598;29;20609;-66
2023/07/11 00:14:54;;;;;;;;;;;;;;;;;;10029350;28;19930;-67
2023/07/11 00:19:51;;;;;;;;;;;;;;;;;;10032866;28;20411;-67
2023/07/11 00:24:47;;;;;;;;;;;;;;;;;;10052219;28;19993;-67
2023/07/11 00:29:43;;;;;;;;;;;;;;;;;;10020527;28;19926;-67
2023/07/11 00:34:39;;;;;;;;;;;;;;;;;;10040741;28;19958;-67
2023/07/11 00:39:36;;;;;;;;;;;;;;;;;;10023997;28;19973;-67
2023/07/11 00:44:32;;;;;;;;;;;;;;;;;;10024659;28;19926;-65
2023/07/11 00:49:28;;;;;;;;;;;;;;;;;;10021511;28;20440;-67
2023/07/11 00:54:24;;;;;;;;;;;;;;;;;;10024463;28;19930;-67
2023/07/11 00:59:20;;;;;;;;;;;;;;;;;;10023513;28;19984;-65
2023/07/11 01:04:19;;;;;;;;;;;;;;;;;;10023611;28;19923;-65
2023/07/11 01:09:15;;;;;;;;;;;;;;;;;;10030803;28;19923;-71
2023/07/11 01:14:11;;;;;;;;;;;;;;;;;;10027976;28;20017;-71
2023/07/11 01:19:08;;;;;;;;;;;;;;;;;;10036527;28;19934;-72
2023/07/11 01:24:04;;;;;;;;;;;;;;;;;;10034584;28;19958;-71
2023/07/11 01:29:00;;;;;;;;;;;;;;;;;;10031545;28;19923;-72
2023/07/11 01:33:56;;;;;;;;;;;;;;;;;;10043344;28;19993;-72
2023/07/11 01:38:53;;;;;;;;;;;;;;;;;;10039634;28;19951;-72
2023/07/11 01:43:49;;;;;;;;;;;;;;;;;;10026208;28;19986;-72
2023/07/11 01:48:45;;;;;;;;;;;;;;;;;;10039395;28;19958;-72
2023/07/11 01:53:41;;;;;;;;;;;;;;;;;;10035943;28;19926;-72
2023/07/11 01:58:38;;;;;;;;;;;;;;;;;;10036777;28;20348;-72
2023/07/11 02:03:34;;;;;;;;;;;;;;;;;;10035668;28;19923;-69
2023/07/11 02:08:32;;;;;;;;;;;;;;;;;;10035639;28;20391;-72
2023/07/11 02:13:28;;;;;;;;;;;;;;;;;;10036977;28;20353;-73
2023/07/11 02:18:24;;;;;;;;;;;;;;;;;;10033119;28;19960;-69
2023/07/11 02:23:20;;;;;;;;;;;;;;;;;;10037351;28;19929;-70
2023/07/11 02:28:17;;;;;;;;;;;;;;;;;;10036046;28;19923;-71
2023/07/11 02:33:13;;;;;;;;;;;;;;;;;;10032252;28;19926;-69
2023/07/11 02:38:09;;;;;;;;;;;;;;;;;;10032118;28;20316;-72
2023/07/11 02:43:05;;;;;;;;;;;;;;;;;;10039738;28;19927;-70
2023/07/11 02:48:02;;;;;;;;;;;;;;;;;;10021991;28;19965;-70
2023/07/11 02:52:58;;;;;;;;;;;;;;;;;;10030902;28;19926;-71
2023/07/11 02:57:54;;;;;;;;;;;;;;;;;;10024021;28;19927;-70
2023/07/11 03:02:51;;;;;;;;;;;;;;;;;;10032400;28;19958;-70
2023/07/11 03:07:47;;;;;;;;;;;;;;;;;;10025630;28;19966;-70
2023/07/11 03:12:43;;;;;;;;;;;;;;;;;;10038503;28;20013;-71
2023/07/11 03:17:39;;;;;;;;;;;;;;;;;;10027843;28;19965;-69
2023/07/11 03:22:36;;;;;;;;;;;;;;;;;;10030565;28;19946;-70
2023/07/11 03:27:32;;;;;;;;;;;;;;;;;;10030610;28;20332;-69
2023/07/11 03:32:28;;;;;;;;;;;;;;;;;;10034856;28;19968;-69
2023/07/11 03:37:24;;;;;;;;;;;;;;;;;;10027168;28;19978;-72
2023/07/11 03:42:20;;;;;;;;;;;;;;;;;;10031806;28;19923;-72
2023/07/11 03:47:17;;;;;;;;;;;;;;;;;;10032771;28;19929;-73
2023/07/11 03:52:13;;;;;;;;;;;;;;;;;;10037605;28;19926;-72
2023/07/11 03:57:09;;;;;;;;;;;;;;;;;;10033333;28;19938;-72
2023/07/11 04:02:05;;;;;;;;;;;;;;;;;;10024862;28;19969;-72
2023/07/11 04:07:05;;;;;;;;;;;;;;;;;;10032286;28;19950;-72
2023/07/11 04:12:01;;;;;;;;;;;;;;;;;;10035538;28;20341;-69
2023/07/11 04:16:57;;;;;;;;;;;;;;;;;;10035912;28;19997;-70
2023/07/11 04:21:54;;;;;;;;;;;;;;;;;;10039266;28;20436;-70
2023/07/11 04:26:50;;;;;;;;;;;;;;;;;;10020022;28;19970;-70
2023/07/11 04:31:46;;;;;;;;;;;;;;;;;;10035267;28;19927;-71
2023/07/11 04:36:42;;;;;;;;;;;;;;;;;;10025286;28;19977;-72
2023/07/11 04:41:39;;;;;;;;;;;;;;;;;;10029214;28;19938;-73
2023/07/11 04:46:35;;;;;;;;;;;;;;;;;;10039988;28;19934;-71
2023/07/11 04:51:31;;;;;;;;;;;;;;;;;;10035850;28;19929;-72
2023/07/11 04:56:28;;;;;;;;;;;;;;;;;;10038853;28;19923;-72
2023/07/11 05:01:24;;;;;;;;;;;;;;;;;;10043430;28;20292;-72
2023/07/11 05:06:20;;;;;;;;;;;;;;;;;;10033014;28;20319;-73
2023/07/11 05:11:17;;;;;;;;;;;;;;;;;;10032700;28;20364;-73
2023/07/11 05:16:13;;;;;;;;;;;;;;;;;;10025418;28;20005;-73
2023/07/11 05:21:09;;;;;;;;;;;;;;;;;;10030879;28;19933;-73
2023/07/11 05:26:05;;;;;;;;;;;;;;;;;;10036146;28;20018;-73
2023/07/11 05:31:02;;;;;;;;;;;;;;;;;;10030306;28;19954;-73
2023/07/11 05:36:07;;;;;;;;;;;;;;;;;;10036988;28;19927;-73
2023/07/11 05:41:04;;;;;;;;;;;;;;;;;;10027608;28;19922;-73
2023/07/11 05:46:01;;;;;;;;;;;;;;;;;;10033744;28;20370;-73
2023/07/11 05:50:58;;;;;;;;;;;;;;;;;;10042167;28;19954;-73
2023/07/11 05:55:54;;;;;;;;;;;;;;;;;;10038987;28;19930;-73
2023/07/11 06:00:50;;;;;;;;;;;;;;;;;;10031700;28;20274;-73
2023/07/11 06:05:46;;;;;;;;;;;;;;;;;;10032346;28;19961;-73
2023/07/11 06:10:43;;;;;;;;;;;;;;;;;;10032677;28;19970;-73
2023/07/11 06:15:39;;;;;;;;;;;;;;;;;;10028580;28;19965;-73
2023/07/11 06:20:35;;;;;;;;;;;;;;;;;;10025743;28;19961;-73
2023/07/11 06:25:31;;;;;;;;;;;;;;;;;;10033324;28;19974;-73
2023/07/11 06:30:27;;;;;;;;;;;;;;;;;;10022963;28;20437;-72
2023/07/11 06:35:24;;;;;;;;;;;;;;;;;;10040028;28;19931;-73
2023/07/11 06:40:20;;;;;;;;;;;;;;;;;;10025648;28;20458;-73
2023/07/11 06:45:17;;;;;;;;;;;;;;;;;;10027358;28;19958;-73
2023/07/11 06:50:13;;;;;;;;;;;;;;;;;;10027728;28;19927;-72
2023/07/11 06:55:09;;;;;;;;;;;;;;;;;;10022137;28;20001;-72
2023/07/11 07:00:06;;;;;;;;;;;;;;;;;;10034401;28;19922;-72
2023/07/11 07:05:03;;;;;;;;;;;;;;;;;;10025611;28;19958;-73
2023/07/11 07:09:59;;;;;;;;;;;;;;;;;;10026347;29;19930;-73
2023/07/11 07:14:55;;;;;;;;;;;;;;;;;;10026731;28;19993;-73
2023/07/11 07:19:52;;;;;;;;;;;;;;;;;;10031309;28;20014;-73
2023/07/11 07:24:48;;;;;;;;;;;;;;;;;;10029198;28;20458;-73
2023/07/11 07:29:44;;;;;;;;;;;;;;;;;;10037342;28;19927;-73
2023/07/11 07:34:40;;;;;;;;;;;;;;;;;;10032721;28;19977;-73
2023/07/11 07:39:39;;;;;;;;;;;;;;;;;;10039977;28;19955;-73
2023/07/11 07:44:35;;;;;;;;;;;;;;;;;;10034798;28;20029;-73
2023/07/11 07:49:31;;;;;;;;;;;;;;;;;;10033296;28;19922;-72
2023/07/11 07:54:37;;;;;;;;;;;;;;;;;;10018524;28;19927;-73
2023/07/11 07:59:33;;;;;;;;;;;;;;;;;;10018480;28;19927;-73
2023/07/11 08:04:30;;;;;;;;;;;;;;;;;;10028570;28;19930;-71
2023/07/11 08:09:27;;;;;;;;;;;;;;;;;;10020201;28;19923;-73
2023/07/11 08:14:23;;;;;;;;;;;;;;;;;;10026197;28;20435;-73
2023/07/11 08:19:19;;;;;;;;;;;;;;;;;;10025806;28;19934;-73
2023/07/11 08:24:15;;;;;;;;;;;;;;;;;;10030616;28;20005;-73
2023/07/11 08:29:13;;;;;;;;;;;;;;;;;;10035938;28;19996;-73
2023/07/11 08:34:23;;;;;;;;;;;;;;;;;;10036946;28;19926;-73
2023/07/11 08:39:19;;;;;;;;;;;;;;;;;;10026383;28;20348;-73
2023/07/11 08:44:15;;;;;;;;;;;;;;;;;;10044482;28;20003;-73
2023/07/11 08:49:12;;;;;;;;;;;;;;;;;;10033132;28;19970;-73
2023/07/11 08:54:08;;;;;;;;;;;;;;;;;;10041140;28;19962;-72
2023/07/11 08:59:04;;;;;;;;;;;;;;;;;;10034127;28;20371;-73
2023/07/11 09:04:01;;;;;;;;;;;;;;;;;;10029364;28;19922;-73
2023/07/11 09:08:58;;;;;;;;;;;;;;;;;;10033170;28;19965;-73
2023/07/11 09:13:54;;;;;;;;;;;;;;;;;;10030479;28;19982;-73
2023/07/11 09:18:51;;;;;;;;;;;;;;;;;;10033864;28;20397;-73
2023/07/11 09:23:47;;;;;;;;;;;;;;;;;;10033937;28;20382;-73
2023/07/11 09:28:43;;;;;;;;;;;;;;;;;;10032052;28;19927;-73
2023/07/11 09:33:39;;;;;;;;;;;;;;;;;;10041145;28;20021;-73
2023/07/11 09:38:36;;;;;;;;;;;;;;;;;;10029668;28;19930;-73
2023/07/11 09:43:32;;;;;;;;;;;;;;;;;;10022534;28;19938;-73
2023/07/11 09:48:30;;;;;;;;;;;;;;;;;;10032193;28;19970;-73
2023/07/11 09:53:28;;;;;;;;;;;;;;;;;;10025849;28;19978;-73
2023/07/11 09:58:25;;;;;;;;;;;;;;;;;;10027502;28;20394;-73
2023/07/11 10:03:21;;;;;;;;;;;;;;;;;;10030948;28;19922;-73
2023/07/11 10:08:19;;;;;;;;;;;;;;;;;;10025736;28;19927;-73
2023/07/11 10:13:15;;;;;;;;;;;;;;;;;;10029757;28;19949;-73
2023/07/11 10:18:21;;;;;;;;;;;;;;;;;;10031155;28;20278;-73
2023/07/11 10:23:17;;;;;;;;;;;;;;;;;;10042315;28;19926;-73
2023/07/11 10:28:13;;;;;;;;;;;;;;;;;;10031289;28;19977;-73
2023/07/11 10:33:10;;;;;;;;;;;;;;;;;;10022796;28;19969;-73
2023/07/11 10:38:17;;;;;;;;;;;;;;;;;;10032133;28;19933;-73
2023/07/11 10:43:13;;;;;;;;;;;;;;;;;;10029319;28;19922;-73
2023/07/11 10:48:10;;;;;;;;;;;;;;;;;;10030369;28;19937;-74
2023/07/11 10:53:06;;;;;;;;;;;;;;;;;;10030985;28;20037;-74
2023/07/11 10:58:03;;;;;;;;;;;;;;;;;;10032559;28;19965;-73
2023/07/11 11:02:59;;;;;;;;;;;;;;;;;;10030677;28;19958;-74
2023/07/11 11:07:57;;;;;;;;;;;;;;;;;;10027385;28;19927;-73
2023/07/11 11:12:53;;;;;;;;;;;;;;;;;;10029572;28;19977;-73
2023/07/11 11:17:49;;;;;;;;;;;;;;;;;;10025687;28;20489;-73
2023/07/11 11:22:46;;;;;;;;;;;;;;;;;;10033376;28;19930;-74
2023/07/11 11:27:42;;;;;;;;;;;;;;;;;;10027997;28;19950;-73
2023/07/11 11:32:38;;;;;;;;;;;;;;;;;;10021851;28;19989;-73
2023/07/11 11:37:36;;;;;;;;;;;;;;;;;;10028702;28;19923;-73
2023/07/11 11:42:32;;;;;;;;;;;;;;;;;;10036762;28;19922;-73
2023/07/11 11:47:29;;;;;;;;;;;;;;;;;;10020490;28;19923;-73
2023/07/11 11:52:28;;;;;;;;;;;;;;;;;;10027223;28;19926;-73
2023/07/11 11:57:26;;;;;;;;;;;;;;;;;;10022080;28;19978;-73
2023/07/11 12:02:22;;;;;;;;;;;;;;;;;;10030268;28;19978;-73
2023/07/11 12:07:18;;;;;;;;;;;;;;;;;;10032219;28;19927;-73
2023/07/11 12:12:14;;;;;;;;;;;;;;;;;;10029144;28;19961;-73
2023/07/11 12:17:11;;;;;;;;;;;;;;;;;;10028334;28;19930;-73
2023/07/11 12:22:07;;;;;;;;;;;;;;;;;;10010273;28;19926;-74
2023/07/11 12:27:03;;;;;;;;;;;;;;;;;;10017477;28;20409;-73
2023/07/11 12:32:00;;;;;;;;;;;;;;;;;;10025560;28;19982;-73
2023/07/11 12:36:56;;;;;;;;;;;;;;;;;;10021206;28;20312;-74
2023/07/11 12:41:52;;;;;;;;;;;;;;;;;;10022286;28;19966;-73
2023/07/11 12:46:48;;;;;;;;;;;;;;;;;;10021412;28;19927;-73
2023/07/11 12:51:45;;;;;;;;;;;;;;;;;;10014346;28;19970;-73
2023/07/11 12:56:41;;;;;;;;;;;;;;;;;;10017705;28;20018;-74
2023/07/11 13:01:37;;;;;;;;;;;;;;;;;;10020807;28;19957;-73
2023/07/11 13:06:34;;;;;;;;;;;;;;;;;;10029989;28;19974;-73
2023/07/11 13:11:31;;;;;;;;;;;;;;;;;;10023462;28;19965;-73
2023/07/11 13:16:27;;;;;;;;;;;;;;;;;;10028132;28;19930;-73
2023/07/11 13:21:23;;;;;;;;;;;;;;;;;;10032170;28;19923;-73
2023/07/11 13:26:20;;;;;;;;;;;;;;;;;;10021527;28;19938;-73
2023/07/11 13:31:16;;;;;;;;;;;;;;;;;;10025081;28;19951;-73
2023/07/11 13:36:12;;;;;;;;;;;;;;;;;;10030651;28;19934;-73
2023/07/11 13:41:17;;;;;;;;;;;;;;;;;;10036249;28;19929;-73
2023/07/11 13:46:14;;;;;;;;;;;;;;;;;;10030510;28;19962;-73
2023/07/11 13:51:10;;;;;;;;;;;;;;;;;;10030985;28;19962;-73
2023/07/11 13:56:06;;;;;;;;;;;;;;;;;;10041141;28;19961;-73
2023/07/11 14:01:02;;;;;;;;;;;;;;;;;;10024445;28;19923;-73
2023/07/11 14:06:00;;;;;;;;;;;;;;;;;;10028543;28;20009;-73
2023/07/11 14:10:56;;;;;;;;;;;;;;;;;;10038885;28;19922;-73
2023/07/11 14:15:52;;;;;;;;;;;;;;;;;;10037416;28;20040;-73
2023/07/11 14:20:49;;;;;;;;;;;;;;;;;;10035041;28;20081;-73
2023/07/11 14:25:45;;;;;;;;;;;;;;;;;;10029589;28;20701;-73
2023/07/11 14:30:41;;;;;;;;;;;;;;;;;;10029122;28;19961;-73
2023/07/11 14:35:37;;;;;;;;;;;;;;;;;;10031605;28;20364;-73
2023/07/11 14:40:33;;;;;;;;;;;;;;;;;;10024146;28;19946;-73
2023/07/11 14:45:31;;;;;;;;;;;;;;;;;;10029842;28;20381;-73
2023/07/11 14:50:27;;;;;;;;;;;;;;;;;;10030563;28;20297;-73
2023/07/11 14:55:23;;;;;;;;;;;;;;;;;;10028803;28;20657;-73
2023/07/11 15:00:23;;;;;;;;;;;;;;;;;;10036433;28;19922;-73
2023/07/11 15:05:19;;;;;;;;;;;;;;;;;;10017428;28;19966;-73
2023/07/11 15:10:18;;;;;;;;;;;;;;;;;;10023042;28;19923;-73
2023/07/11 15:15:18;;;;;;;;;;;;;;;;;;10028421;28;19986;-73
2023/07/11 15:20:17;;;;;;;;;;;;;;;;;;10026457;28;19930;-73
2023/07/11 15:25:13;;;;;;;;;;;;;;;;;;10029933;28;20005;-73
2023/07/11 15:30:09;;;;;;;;;;;;;;;;;;10027038;28;19923;-73
2023/07/11 15:35:07;;;;;;;;;;;;;;;;;;10023278;28;20406;-73
2023/07/11 15:40:04;;;;;;;;;;;;;;;;;;10028914;28;20009;-73
2023/07/11 15:45:03;;;;;;;;;;;;;;;;;;10022826;29;19926;-73
2023/07/11 15:49:59;;;;;;;;;;;;;;;;;;10024833;29;20724;-73
2023/07/11 15:54:56;;;;;;;;;;;;;;;;;;10033741;28;20332;-73
2023/07/11 15:59:52;;;;;;;;;;;;;;;;;;10033784;28;19945;-73
2023/07/11 16:04:48;;;;;;;;;;;;;;;;;;10039037;28;19953;-72
2023/07/11 16:09:48;;;;;;;;;;;;;;;;;;10034449;28;20389;-73
2023/07/11 16:14:44;;;;;;;;;;;;;;;;;;10036462;28;20657;-73
2023/07/11 16:19:41;;;;;;;;;;;;;;;;;;10046929;28;20292;-73
2023/07/11 16:24:37;;;;;;;;;;;;;;;;;;10029598;28;20313;-73
2023/07/11 16:29:33;;;;;;;;;;;;;;;;;;10039717;28;19930;-73
2023/07/11 16:34:30;;;;;;;;;;;;;;;;;;10018568;28;20392;-73
2023/07/11 16:39:26;;;;;;;;;;;;;;;;;;10028326;28;19990;-73
2023/07/11 16:44:22;;;;;;;;;;;;;;;;;;10031534;28;19926;-73
2023/07/11 16:49:18;;;;;;;;;;;;;;;;;;10025632;28;20396;-73
2023/07/11 16:54:16;;;;;;;;;;;;;;;;;;10031405;28;19931;-73
2023/07/11 16:59:12;;;;;;;;;;;;;;;;;;10026961;28;20301;-73
2023/07/11 17:04:09;;;;;;;;;;;;;;;;;;10028560;28;19978;-73
2023/07/11 17:09:05;;;;;;;;;;;;;;;;;;10033349;28;19923;-73
2023/07/11 17:14:01;;;;;;;;;;;;;;;;;;10033153;28;19922;-73
2023/07/11 17:18:58;;;;;;;;;;;;;;;;;;10045429;28;19930;-73
2023/07/11 17:23:54;;;;;;;;;;;;;;;;;;10040905;28;20564;-72
2023/07/11 17:28:50;;;;;;;;;;;;;;;;;;10055487;28;20393;-71
2023/07/11 17:33:46;;;;;;;;;;;;;;;;;;10045043;28;19927;-71
2023/07/11 17:38:44;;;;;;;;;;;;;;;;;;10032547;28;19923;-71
2023/07/11 17:43:40;;;;;;;;;;;;;;;;;;10032718;28;19935;-71
2023/07/11 17:48:39;;;;;;;;;;;;;;;;;;10028459;28;20013;-71
2023/07/11 17:53:35;;;;;;;;;;;;;;;;;;10023280;28;19931;-71
2023/07/11 17:58:31;;;;;;;;;;;;;;;;;;10032275;28;20038;-72
2023/07/11 18:03:28;;;;;;;;;;;;;;;;;;10040882;28;20342;-72
2023/07/11 18:08:24;;;;;;;;;;;;;;;;;;10028933;28;19978;-72
2023/07/11 18:13:20;;;;;;;;;;;;;;;;;;10026945;28;19942;-72
2023/07/11 18:18:17;;;;;;;;;;;;;;;;;;10028774;28;19973;-72
2023/07/11 18:23:13;;;;;;;;;;;;;;;;;;10031256;28;19953;-72
2023/07/11 18:28:09;;;;;;;;;;;;;;;;;;10030573;28;20018;-72
2023/07/11 18:33:06;;;;;;;;;;;;;;;;;;10027152;28;19926;-72
2023/07/11 18:38:02;;;;;;;;;;;;;;;;;;10027972;28;19938;-72
2023/07/11 18:42:59;;;;;;;;;;;;;;;;;;10032620;28;19973;-72
2023/07/11 18:47:55;;;;;;;;;;;;;;;;;;10014768;28;20459;-72
2023/07/11 18:52:51;;;;;;;;;;;;;;;;;;10021078;28;19969;-72
2023/07/11 18:57:48;;;;;;;;;;;;;;;;;;10022111;28;20010;-71
2023/07/11 19:02:44;;;;;;;;;;;;;;;;;;10030074;28;20044;-71
2023/07/11 19:07:40;;;;;;;;;;;;;;;;;;10032759;28;19965;-71
2023/07/11 19:12:37;;;;;;;;;;;;;;;;;;10031877;28;19923;-72
2023/07/11 19:17:33;;;;;;;;;;;;;;;;;;10029890;28;19929;-73
2023/07/11 19:22:30;;;;;;;;;;;;;;;;;;10025809;28;19926;-74
2023/07/11 19:27:27;;;;;;;;;;;;;;;;;;10022590;28;19961;-74
2023/07/11 19:32:23;;;;;;;;;;;;;;;;;;10023681;28;20669;-72
2023/07/11 19:37:20;;;;;;;;;;;;;;;;;;10040245;28;19927;-72
2023/07/11 19:42:16;;;;;;;;;;;;;;;;;;10021495;28;19922;-72
2023/07/11 19:47:12;;;;;;;;;;;;;;;;;;10024187;28;20001;-68
2023/07/11 19:52:09;;;;;;;;;;;;;;;;;;10036075;28;20041;-69
2023/07/11 19:57:05;;;;;;;;;;;;;;;;;;10038089;28;19923;-69
2023/07/11 20:02:01;;;;;;;;;;;;;;;;;;10036629;28;20157;-69
2023/07/11 20:07:00;;;;;;;;;;;;;;;;;;10033902;28;19930;-69
2023/07/11 20:11:57;;;;;;;;;;;;;;;;;;10036413;28;19923;-69
2023/07/11 20:16:57;;;;;;;;;;;;;;;;;;10029917;28;19933;-68
2023/07/11 20:21:54;;;;;;;;;;;;;;;;;;10047530;28;19969;-69
2023/07/11 20:26:51;;;;;;;;;;;;;;;;;;10031809;28;19926;-70
2023/07/11 20:31:50;;;;;;;;;;;;;;;;;;10046016;28;19931;-70
2023/07/11 20:36:49;;;;;;;;;;;;;;;;;;10041961;28;19926;-70
2023/07/11 20:41:47;;;;;;;;;;;;;;;;;;10037703;28;20435;-70
2023/07/11 20:46:46;;;;;;;;;;;;;;;;;;10040399;28;19956;-68
2023/07/11 20:51:45;;;;;;;;;;;;;;;;;;10049979;28;19926;-68
2023/07/11 20:56:42;;;;;;;;;;;;;;;;;;10040595;28;19966;-68
2023/07/11 21:01:39;;;;;;;;;;;;;;;;;;10046724;28;19930;-69
2023/07/11 21:06:51;;;;;;;;;;;;;;;;;;10031331;28;19923;-68
2023/07/11 21:11:51;;;;;;;;;;;;;;;;;;10044497;28;20024;-68
2023/07/11 21:16:47;;;;;;;;;;;;;;;;;;10041298;28;20022;-69
2023/07/11 21:21:44;;;;;;;;;;;;;;;;;;10047558;28;19922;-68
2023/07/11 21:26:43;;;;;;;;;;;;;;;;;;10050611;28;20324;-68
2023/07/11 21:31:40;;;;;;;;;;;;;;;;;;10041503;28;19930;-68
2023/07/11 21:36:39;;;;;;;;;;;;;;;;;;10039445;28;20107;-69
2023/07/11 21:41:37;;;;;;;;;;;;;;;;;;10041078;28;19961;-68
2023/07/11 21:46:34;;;;;;;;;;;;;;;;;;10051387;28;20025;-67
2023/07/11 21:51:32;;;;;;;;;;;;;;;;;;10039639;28;19926;-68
2023/07/11 21:56:32;;;;;;;;;;;;;;;;;;10039702;28;19922;-68
2023/07/11 22:01:31;;;;;;;;;;;;;;;;;;10037070;28;19927;-68
2023/07/11 22:06:30;;;;;;;;;;;;;;;;;;10038415;28;19990;-68
2023/07/11 22:11:27;;;;;;;;;;;;;;;;;;10037876;28;19969;-68
2023/07/11 22:16:26;;;;;;;;;;;;;;;;;;10043661;28;19962;-70
2023/07/11 22:21:23;;;;;;;;;;;;;;;;;;10051665;28;20296;-70
2023/07/11 22:26:20;;;;;;;;;;;;;;;;;;10029622;28;20432;-70
2023/07/11 22:31:18;;;;;;;;;;;;;;;;;;10036235;28;19950;-70
2023/07/11 22:36:25;;;;;;;;;;;;;;;;;;10047791;28;19985;-69
2023/07/11 22:41:24;;;;;;;;;;;;;;;;;;10035788;28;19922;-69
2023/07/11 22:46:25;;;;;;;;;;;;;;;;;;10038054;28;19930;-69
2023/07/11 22:51:22;;;;;;;;;;;;;;;;;;10035395;28;19974;-70
2023/07/11 22:56:19;;;;;;;;;;;;;;;;;;10030764;28;19922;-70
2023/07/11 23:01:18;;;;;;;;;;;;;;;;;;10036436;28;19926;-70
2023/07/11 23:06:20;;;;;;;;;;;;;;;;;;10043401;28;19968;-69
2023/07/11 23:11:16;;;;;;;;;;;;;;;;;;10030568;28;19934;-70
2023/07/11 23:16:13;;;;;;;;;;;;;;;;;;10042710;28;19966;-69
2023/07/11 23:21:09;;;;;;;;;;;;;;;;;;10053632;28;19929;-69
2023/07/11 23:26:06;;;;;;;;;;;;;;;;;;10032395;28;20399;-69
2023/07/11 23:31:11;;;;;;;;;;;;;;;;;;10037691;28;19923;-69
2023/07/11 23:36:08;;;;;;;;;;;;;;;;;;10041722;28;19969;-68
2023/07/11 23:41:05;;;;;;;;;;;;;;;;;;10038914;28;19950;-69
2023/07/11 23:46:05;;;;;;;;;;;;;;;;;;10037879;28;19981;-68
2023/07/11 23:51:01;;;;;;;;;;;;;;;;;;10037435;28;20002;-68
2023/07/11 23:55:58;;;;;;;;;;;;;;;;;;10025509;28;19929;-68
